sensor_id;sensor_type;location;lat;lon;timestamp;P1;durP1;ratioP1;P2;durP2;ratioP2
37451;SDS011;23314;51.114;6.900;2022-08-20T00:00:32;4.80;;;3.45;;
37451;SDS011;23314;51.114;6.900;2022-08-20T00:03:05;5.03;;;3.88;;
37451;SDS011;23314;51.114;6.900;2022-08-20T00:05:34;4.10;;;3.72;;
37451;SDS011;23314;51.114;6.900;2022-08-20T00:08:02;5.05;;;4.50;;
37451;SDS011;23314;51.114;6.900;2022-08-20T00:10:28;4.53;;;4.13;;
37451;SDS011;23314;51.114;6.900;2022-08-20T00:12:57;4.95;;;4.15;;
37451;SDS011;23314;51.114;6.900;2022-08-20T00:15:30;5.40;;;4.90;;
37451;SDS011;23314;51.114;6.900;2022-08-20T00:17:57;6.07;;;5.47;;
37451;SDS011;23314;51.114;6.900;2022-08-20T00:20:24;7.65;;;5.45;;
37451;SDS011;23314;51.114;6.900;2022-08-20T00:22:51;6.40;;;5.88;;
37451;SDS011;23314;51.114;6.900;2022-08-20T00:25:16;8.18;;;5.78;;
37451;SDS011;23314;51.114;6.900;2022-08-20T00:27:42;7.22;;;5.97;;
37451;SDS011;23314;51.114;6.900;2022-08-20T00:30:08;7.40;;;6.53;;
37451;SDS011;23314;51.114;6.900;2022-08-20T00:32:46;12.55;;;8.05;;
37451;SDS011;23314;51.114;6.900;2022-08-20T00:35:15;8.30;;;6.88;;
37451;SDS011;23314;51.114;6.900;2022-08-20T00:37:42;8.15;;;7.35;;
37451;SDS011;23314;51.114;6.900;2022-08-20T00:40:08;7.70;;;7.00;;
37451;SDS011;23314;51.114;6.900;2022-08-20T00:42:45;10.88;;;6.70;;
37451;SDS011;23314;51.114;6.900;2022-08-20T00:45:13;10.32;;;8.38;;
37451;SDS011;23314;51.114;6.900;2022-08-20T00:47:40;9.95;;;7.63;;
37451;SDS011;23314;51.114;6.900;2022-08-20T00:50:19;7.90;;;7.18;;
37451;SDS011;23314;51.114;6.900;2022-08-20T00:52:48;8.70;;;7.80;;
37451;SDS011;23314;51.114;6.900;2022-08-20T00:55:16;11.27;;;7.60;;
37451;SDS011;23314;51.114;6.900;2022-08-20T00:57:45;9.60;;;8.30;;
37451;SDS011;23314;51.114;6.900;2022-08-20T01:00:17;11.75;;;8.40;;
37451;SDS011;23314;51.114;6.900;2022-08-20T01:02:55;7.82;;;6.63;;
37451;SDS011;23314;51.114;6.900;2022-08-20T01:05:23;9.75;;;8.10;;
37451;SDS011;23314;51.114;6.900;2022-08-20T01:07:49;9.13;;;8.05;;
37451;SDS011;23314;51.114;6.900;2022-08-20T01:10:18;9.15;;;8.25;;
37451;SDS011;23314;51.114;6.900;2022-08-20T01:12:47;11.10;;;7.68;;
37451;SDS011;23314;51.114;6.900;2022-08-20T01:15:14;11.18;;;9.20;;
37451;SDS011;23314;51.114;6.900;2022-08-20T01:17:48;10.70;;;8.88;;
37451;SDS011;23314;51.114;6.900;2022-08-20T01:20:18;11.35;;;9.27;;
37451;SDS011;23314;51.114;6.900;2022-08-20T01:22:52;10.05;;;8.35;;
37451;SDS011;23314;51.114;6.900;2022-08-20T01:25:48;9.88;;;8.15;;
37451;SDS011;23314;51.114;6.900;2022-08-20T01:28:19;11.27;;;8.40;;
37451;SDS011;23314;51.114;6.900;2022-08-20T01:30:49;10.02;;;9.00;;
37451;SDS011;23314;51.114;6.900;2022-08-20T01:33:18;14.50;;;9.05;;
37451;SDS011;23314;51.114;6.900;2022-08-20T01:35:45;13.07;;;8.27;;
37451;SDS011;23314;51.114;6.900;2022-08-20T01:38:11;10.18;;;8.52;;
37451;SDS011;23314;51.114;6.900;2022-08-20T01:40:51;12.77;;;9.48;;
37451;SDS011;23314;51.114;6.900;2022-08-20T01:43:25;9.30;;;8.40;;
37451;SDS011;23314;51.114;6.900;2022-08-20T01:45:51;7.78;;;6.90;;
37451;SDS011;23314;51.114;6.900;2022-08-20T01:48:17;7.95;;;7.18;;
37451;SDS011;23314;51.114;6.900;2022-08-20T01:50:44;15.60;;;8.00;;
37451;SDS011;23314;51.114;6.900;2022-08-20T01:53:19;7.82;;;7.03;;
37451;SDS011;23314;51.114;6.900;2022-08-20T01:55:50;9.30;;;8.30;;
37451;SDS011;23314;51.114;6.900;2022-08-20T01:58:16;14.68;;;9.88;;
37451;SDS011;23314;51.114;6.900;2022-08-20T02:00:41;9.25;;;8.25;;
37451;SDS011;23314;51.114;6.900;2022-08-20T02:03:06;8.80;;;7.90;;
37451;SDS011;23314;51.114;6.900;2022-08-20T02:05:33;9.23;;;7.38;;
37451;SDS011;23314;51.114;6.900;2022-08-20T02:07:59;9.23;;;7.82;;
37451;SDS011;23314;51.114;6.900;2022-08-20T02:10:26;9.43;;;7.80;;
37451;SDS011;23314;51.114;6.900;2022-08-20T02:12:53;9.77;;;8.75;;
37451;SDS011;23314;51.114;6.900;2022-08-20T02:15:18;12.02;;;8.90;;
37451;SDS011;23314;51.114;6.900;2022-08-20T02:17:43;10.38;;;8.18;;
37451;SDS011;23314;51.114;6.900;2022-08-20T02:20:10;9.80;;;8.70;;
37451;SDS011;23314;51.114;6.900;2022-08-20T02:22:47;12.38;;;9.60;;
37451;SDS011;23314;51.114;6.900;2022-08-20T02:25:17;9.55;;;8.48;;
37451;SDS011;23314;51.114;6.900;2022-08-20T02:27:44;7.57;;;6.78;;
37451;SDS011;23314;51.114;6.900;2022-08-20T02:30:16;8.38;;;7.57;;
37451;SDS011;23314;51.114;6.900;2022-08-20T02:32:45;10.30;;;8.60;;
37451;SDS011;23314;51.114;6.900;2022-08-20T02:35:11;9.73;;;8.38;;
37451;SDS011;23314;51.114;6.900;2022-08-20T02:37:38;10.38;;;8.52;;
37451;SDS011;23314;51.114;6.900;2022-08-20T02:40:06;9.10;;;7.85;;
37451;SDS011;23314;51.114;6.900;2022-08-20T02:42:35;8.68;;;7.50;;
37451;SDS011;23314;51.114;6.900;2022-08-20T02:45:10;7.45;;;6.75;;
37451;SDS011;23314;51.114;6.900;2022-08-20T02:47:42;6.53;;;6.00;;
37451;SDS011;23314;51.114;6.900;2022-08-20T02:50:10;9.02;;;7.60;;
37451;SDS011;23314;51.114;6.900;2022-08-20T02:52:40;8.50;;;7.18;;
37451;SDS011;23314;51.114;6.900;2022-08-20T02:55:06;8.90;;;6.88;;
37451;SDS011;23314;51.114;6.900;2022-08-20T02:57:32;8.20;;;6.70;;
37451;SDS011;23314;51.114;6.900;2022-08-20T02:59:58;9.45;;;6.93;;
37451;SDS011;23314;51.114;6.900;2022-08-20T03:02:24;8.25;;;5.90;;
37451;SDS011;23314;51.114;6.900;2022-08-20T03:04:49;5.95;;;5.15;;
37451;SDS011;23314;51.114;6.900;2022-08-20T03:07:15;6.43;;;5.80;;
37451;SDS011;23314;51.114;6.900;2022-08-20T03:09:40;7.40;;;6.20;;
37451;SDS011;23314;51.114;6.900;2022-08-20T03:12:06;6.43;;;5.82;;
37451;SDS011;23314;51.114;6.900;2022-08-20T03:14:32;7.78;;;6.90;;
37451;SDS011;23314;51.114;6.900;2022-08-20T03:16:58;7.80;;;7.00;;
37451;SDS011;23314;51.114;6.900;2022-08-20T03:19:23;7.28;;;6.30;;
37451;SDS011;23314;51.114;6.900;2022-08-20T03:21:49;7.90;;;6.70;;
37451;SDS011;23314;51.114;6.900;2022-08-20T03:24:14;9.05;;;7.05;;
37451;SDS011;23314;51.114;6.900;2022-08-20T03:26:40;9.38;;;7.30;;
37451;SDS011;23314;51.114;6.900;2022-08-20T03:29:06;9.50;;;8.10;;
37451;SDS011;23314;51.114;6.900;2022-08-20T03:31:31;7.45;;;5.78;;
37451;SDS011;23314;51.114;6.900;2022-08-20T03:33:57;7.07;;;6.38;;
37451;SDS011;23314;51.114;6.900;2022-08-20T03:36:22;7.43;;;5.93;;
37451;SDS011;23314;51.114;6.900;2022-08-20T03:38:49;8.13;;;7.32;;
37451;SDS011;23314;51.114;6.900;2022-08-20T03:41:14;7.40;;;6.70;;
37451;SDS011;23314;51.114;6.900;2022-08-20T03:43:40;9.77;;;8.13;;
37451;SDS011;23314;51.114;6.900;2022-08-20T03:46:06;8.35;;;7.53;;
37451;SDS011;23314;51.114;6.900;2022-08-20T03:48:33;8.98;;;6.43;;
37451;SDS011;23314;51.114;6.900;2022-08-20T03:50:58;9.38;;;7.00;;
37451;SDS011;23314;51.114;6.900;2022-08-20T03:53:25;8.65;;;7.68;;
37451;SDS011;23314;51.114;6.900;2022-08-20T03:55:56;7.88;;;7.10;;
37451;SDS011;23314;51.114;6.900;2022-08-20T03:58:24;9.30;;;7.40;;
37451;SDS011;23314;51.114;6.900;2022-08-20T04:00:51;9.88;;;6.70;;
37451;SDS011;23314;51.114;6.900;2022-08-20T04:03:17;8.25;;;7.45;;
37451;SDS011;23314;51.114;6.900;2022-08-20T04:05:43;7.63;;;6.38;;
37451;SDS011;23314;51.114;6.900;2022-08-20T04:08:11;10.27;;;7.05;;
37451;SDS011;23314;51.114;6.900;2022-08-20T04:10:40;7.35;;;6.57;;
37451;SDS011;23314;51.114;6.900;2022-08-20T04:13:06;8.02;;;6.82;;
37451;SDS011;23314;51.114;6.900;2022-08-20T04:15:33;8.23;;;6.75;;
37451;SDS011;23314;51.114;6.900;2022-08-20T04:18:01;7.28;;;6.57;;
37451;SDS011;23314;51.114;6.900;2022-08-20T04:20:30;7.97;;;7.13;;
37451;SDS011;23314;51.114;6.900;2022-08-20T04:22:56;7.82;;;6.15;;
37451;SDS011;23314;51.114;6.900;2022-08-20T04:25:22;11.57;;;7.32;;
37451;SDS011;23314;51.114;6.900;2022-08-20T04:27:47;8.10;;;6.90;;
37451;SDS011;23314;51.114;6.900;2022-08-20T04:30:17;7.05;;;6.35;;
37451;SDS011;23314;51.114;6.900;2022-08-20T04:32:43;9.02;;;8.07;;
37451;SDS011;23314;51.114;6.900;2022-08-20T04:35:10;9.40;;;7.28;;
37451;SDS011;23314;51.114;6.900;2022-08-20T04:37:38;8.68;;;7.78;;
37451;SDS011;23314;51.114;6.900;2022-08-20T04:40:06;7.60;;;6.22;;
37451;SDS011;23314;51.114;6.900;2022-08-20T04:42:52;10.63;;;7.07;;
37451;SDS011;23314;51.114;6.900;2022-08-20T04:45:17;7.32;;;6.18;;
37451;SDS011;23314;51.114;6.900;2022-08-20T04:47:43;9.32;;;7.32;;
37451;SDS011;23314;51.114;6.900;2022-08-20T04:50:09;8.55;;;7.18;;
37451;SDS011;23314;51.114;6.900;2022-08-20T04:52:36;7.95;;;7.25;;
37451;SDS011;23314;51.114;6.900;2022-08-20T04:55:02;7.90;;;6.97;;
37451;SDS011;23314;51.114;6.900;2022-08-20T04:57:28;7.13;;;6.40;;
37451;SDS011;23314;51.114;6.900;2022-08-20T04:59:53;8.40;;;7.55;;
37451;SDS011;23314;51.114;6.900;2022-08-20T05:02:19;10.32;;;8.82;;
37451;SDS011;23314;51.114;6.900;2022-08-20T05:04:45;10.90;;;9.32;;
37451;SDS011;23314;51.114;6.900;2022-08-20T05:07:12;9.48;;;8.27;;
37451;SDS011;23314;51.114;6.900;2022-08-20T05:09:43;10.95;;;9.80;;
37451;SDS011;23314;51.114;6.900;2022-08-20T05:12:08;8.75;;;7.82;;
37451;SDS011;23314;51.114;6.900;2022-08-20T05:14:34;12.00;;;8.60;;
37451;SDS011;23314;51.114;6.900;2022-08-20T05:17:03;9.85;;;8.98;;
37451;SDS011;23314;51.114;6.900;2022-08-20T05:19:30;11.50;;;10.23;;
37451;SDS011;23314;51.114;6.900;2022-08-20T05:21:58;14.45;;;13.05;;
37451;SDS011;23314;51.114;6.900;2022-08-20T05:24:24;18.00;;;16.27;;
37451;SDS011;23314;51.114;6.900;2022-08-20T05:26:50;16.55;;;15.05;;
37451;SDS011;23314;51.114;6.900;2022-08-20T05:29:15;14.25;;;12.93;;
37451;SDS011;23314;51.114;6.900;2022-08-20T05:31:41;14.38;;;13.05;;
37451;SDS011;23314;51.114;6.900;2022-08-20T05:34:08;15.82;;;14.32;;
37451;SDS011;23314;51.114;6.900;2022-08-20T05:36:36;17.95;;;16.25;;
37451;SDS011;23314;51.114;6.900;2022-08-20T05:39:09;13.20;;;12.00;;
37451;SDS011;23314;51.114;6.900;2022-08-20T05:41:36;11.52;;;10.52;;
37451;SDS011;23314;51.114;6.900;2022-08-20T05:44:02;13.02;;;12.00;;
37451;SDS011;23314;51.114;6.900;2022-08-20T05:46:30;13.23;;;11.85;;
37451;SDS011;23314;51.114;6.900;2022-08-20T05:48:58;13.73;;;12.32;;
37451;SDS011;23314;51.114;6.900;2022-08-20T05:51:26;14.48;;;13.02;;
37451;SDS011;23314;51.114;6.900;2022-08-20T05:53:52;12.52;;;11.35;;
37451;SDS011;23314;51.114;6.900;2022-08-20T05:56:17;12.38;;;11.13;;
37451;SDS011;23314;51.114;6.900;2022-08-20T05:58:43;11.52;;;10.43;;
37451;SDS011;23314;51.114;6.900;2022-08-20T06:01:08;11.63;;;10.45;;
37451;SDS011;23314;51.114;6.900;2022-08-20T06:03:33;13.60;;;12.20;;
37451;SDS011;23314;51.114;6.900;2022-08-20T06:06:17;16.88;;;13.70;;
37451;SDS011;23314;51.114;6.900;2022-08-20T06:08:42;17.55;;;15.55;;
37451;SDS011;23314;51.114;6.900;2022-08-20T06:11:08;21.23;;;18.13;;
37451;SDS011;23314;51.114;6.900;2022-08-20T06:13:33;20.63;;;16.48;;
37451;SDS011;23314;51.114;6.900;2022-08-20T06:15:59;25.40;;;21.17;;
37451;SDS011;23314;51.114;6.900;2022-08-20T06:18:25;32.78;;;25.45;;
37451;SDS011;23314;51.114;6.900;2022-08-20T06:20:51;33.80;;;27.25;;
37451;SDS011;23314;51.114;6.900;2022-08-20T06:23:16;31.42;;;25.33;;
37451;SDS011;23314;51.114;6.900;2022-08-20T06:25:42;38.33;;;29.63;;
37451;SDS011;23314;51.114;6.900;2022-08-20T06:28:08;44.35;;;31.63;;
37451;SDS011;23314;51.114;6.900;2022-08-20T06:30:34;38.60;;;31.13;;
37451;SDS011;23314;51.114;6.900;2022-08-20T06:33:00;37.58;;;29.30;;
37451;SDS011;23314;51.114;6.900;2022-08-20T06:35:25;46.58;;;34.42;;
37451;SDS011;23314;51.114;6.900;2022-08-20T06:37:51;37.28;;;30.80;;
37451;SDS011;23314;51.114;6.900;2022-08-20T06:40:19;44.45;;;31.77;;
37451;SDS011;23314;51.114;6.900;2022-08-20T06:42:50;29.15;;;25.95;;
37451;SDS011;23314;51.114;6.900;2022-08-20T06:45:17;35.42;;;30.50;;
37451;SDS011;23314;51.114;6.900;2022-08-20T06:47:52;32.35;;;28.80;;
37451;SDS011;23314;51.114;6.900;2022-08-20T06:50:21;31.17;;;27.83;;
37451;SDS011;23314;51.114;6.900;2022-08-20T06:52:49;29.73;;;25.60;;
37451;SDS011;23314;51.114;6.900;2022-08-20T06:55:15;31.38;;;28.00;;
37451;SDS011;23314;51.114;6.900;2022-08-20T06:57:41;26.40;;;23.50;;
37451;SDS011;23314;51.114;6.900;2022-08-20T07:00:09;26.73;;;23.20;;
37451;SDS011;23314;51.114;6.900;2022-08-20T07:02:38;30.40;;;23.67;;
37451;SDS011;23314;51.114;6.900;2022-08-20T07:05:04;23.55;;;21.17;;
37451;SDS011;23314;51.114;6.900;2022-08-20T07:07:30;24.00;;;21.40;;
37451;SDS011;23314;51.114;6.900;2022-08-20T07:09:59;23.08;;;20.40;;
37451;SDS011;23314;51.114;6.900;2022-08-20T07:12:25;21.42;;;18.60;;
37451;SDS011;23314;51.114;6.900;2022-08-20T07:14:51;20.75;;;18.65;;
37451;SDS011;23314;51.114;6.900;2022-08-20T07:17:16;21.58;;;19.38;;
37451;SDS011;23314;51.114;6.900;2022-08-20T07:19:41;22.83;;;20.33;;
37451;SDS011;23314;51.114;6.900;2022-08-20T07:22:07;22.35;;;19.92;;
37451;SDS011;23314;51.114;6.900;2022-08-20T07:24:32;20.48;;;18.40;;
37451;SDS011;23314;51.114;6.900;2022-08-20T07:26:58;22.52;;;19.45;;
37451;SDS011;23314;51.114;6.900;2022-08-20T07:29:24;21.48;;;19.23;;
37451;SDS011;23314;51.114;6.900;2022-08-20T07:32:09;18.50;;;16.67;;
37451;SDS011;23314;51.114;6.900;2022-08-20T07:34:53;20.70;;;17.35;;
37451;SDS011;23314;51.114;6.900;2022-08-20T07:37:18;20.27;;;18.13;;
37451;SDS011;23314;51.114;6.900;2022-08-20T07:39:47;20.50;;;18.55;;
37451;SDS011;23314;51.114;6.900;2022-08-20T07:42:13;22.67;;;16.60;;
37451;SDS011;23314;51.114;6.900;2022-08-20T07:44:38;15.60;;;13.80;;
37451;SDS011;23314;51.114;6.900;2022-08-20T07:47:03;18.25;;;16.27;;
37451;SDS011;23314;51.114;6.900;2022-08-20T07:49:29;17.73;;;15.68;;
37451;SDS011;23314;51.114;6.900;2022-08-20T07:51:54;17.13;;;15.25;;
37451;SDS011;23314;51.114;6.900;2022-08-20T07:54:20;19.55;;;15.70;;
37451;SDS011;23314;51.114;6.900;2022-08-20T07:56:45;17.13;;;14.73;;
37451;SDS011;23314;51.114;6.900;2022-08-20T07:59:10;17.90;;;15.95;;
37451;SDS011;23314;51.114;6.900;2022-08-20T08:01:37;21.55;;;15.13;;
37451;SDS011;23314;51.114;6.900;2022-08-20T08:04:03;14.23;;;12.93;;
37451;SDS011;23314;51.114;6.900;2022-08-20T08:06:28;17.55;;;13.63;;
37451;SDS011;23314;51.114;6.900;2022-08-20T08:08:55;18.55;;;14.38;;
37451;SDS011;23314;51.114;6.900;2022-08-20T08:11:21;19.60;;;13.95;;
37451;SDS011;23314;51.114;6.900;2022-08-20T08:13:47;18.70;;;13.68;;
37451;SDS011;23314;51.114;6.900;2022-08-20T08:16:12;18.55;;;13.77;;
37451;SDS011;23314;51.114;6.900;2022-08-20T08:18:42;16.83;;;13.52;;
37451;SDS011;23314;51.114;6.900;2022-08-20T08:21:10;14.07;;;12.65;;
37451;SDS011;23314;51.114;6.900;2022-08-20T08:23:37;19.50;;;15.02;;
37451;SDS011;23314;51.114;6.900;2022-08-20T08:26:04;20.13;;;14.00;;
37451;SDS011;23314;51.114;6.900;2022-08-20T08:28:30;19.20;;;15.15;;
37451;SDS011;23314;51.114;6.900;2022-08-20T08:30:55;19.80;;;14.93;;
37451;SDS011;23314;51.114;6.900;2022-08-20T08:33:25;20.33;;;15.20;;
37451;SDS011;23314;51.114;6.900;2022-08-20T08:35:59;18.38;;;14.45;;
37451;SDS011;23314;51.114;6.900;2022-08-20T08:38:30;23.08;;;16.58;;
37451;SDS011;23314;51.114;6.900;2022-08-20T08:41:01;18.00;;;14.73;;
37451;SDS011;23314;51.114;6.900;2022-08-20T08:43:31;16.88;;;14.20;;
37451;SDS011;23314;51.114;6.900;2022-08-20T08:46:02;20.27;;;15.40;;
37451;SDS011;23314;51.114;6.900;2022-08-20T08:48:31;22.77;;;15.48;;
37451;SDS011;23314;51.114;6.900;2022-08-20T08:51:00;17.33;;;11.85;;
37451;SDS011;23314;51.114;6.900;2022-08-20T08:53:29;18.30;;;14.07;;
37451;SDS011;23314;51.114;6.900;2022-08-20T08:56:00;18.27;;;13.27;;
37451;SDS011;23314;51.114;6.900;2022-08-20T08:58:26;14.93;;;13.18;;
37451;SDS011;23314;51.114;6.900;2022-08-20T09:00:52;16.85;;;13.70;;
37451;SDS011;23314;51.114;6.900;2022-08-20T09:03:28;20.17;;;13.93;;
37451;SDS011;23314;51.114;6.900;2022-08-20T09:05:57;17.45;;;13.23;;
37451;SDS011;23314;51.114;6.900;2022-08-20T09:08:46;16.55;;;12.82;;
37451;SDS011;23314;51.114;6.900;2022-08-20T09:11:21;18.67;;;13.25;;
37451;SDS011;23314;51.114;6.900;2022-08-20T09:13:49;20.95;;;13.38;;
37451;SDS011;23314;51.114;6.900;2022-08-20T09:16:18;18.60;;;13.13;;
37451;SDS011;23314;51.114;6.900;2022-08-20T09:18:43;21.58;;;14.43;;
37451;SDS011;23314;51.114;6.900;2022-08-20T09:21:09;17.35;;;13.98;;
37451;SDS011;23314;51.114;6.900;2022-08-20T09:23:35;15.15;;;11.60;;
37451;SDS011;23314;51.114;6.900;2022-08-20T09:26:00;18.63;;;13.57;;
37451;SDS011;23314;51.114;6.900;2022-08-20T09:28:25;18.35;;;14.02;;
37451;SDS011;23314;51.114;6.900;2022-08-20T09:30:51;17.98;;;15.18;;
37451;SDS011;23314;51.114;6.900;2022-08-20T09:33:16;17.42;;;12.82;;
37451;SDS011;23314;51.114;6.900;2022-08-20T09:35:42;19.05;;;14.40;;
37451;SDS011;23314;51.114;6.900;2022-08-20T09:38:09;16.75;;;13.23;;
37451;SDS011;23314;51.114;6.900;2022-08-20T09:40:35;16.92;;;13.93;;
37451;SDS011;23314;51.114;6.900;2022-08-20T09:43:00;17.40;;;13.48;;
37451;SDS011;23314;51.114;6.900;2022-08-20T09:45:27;21.60;;;13.80;;
37451;SDS011;23314;51.114;6.900;2022-08-20T09:47:53;18.63;;;14.65;;
37451;SDS011;23314;51.114;6.900;2022-08-20T09:50:18;21.42;;;14.68;;
37451;SDS011;23314;51.114;6.900;2022-08-20T09:52:44;19.92;;;14.45;;
37451;SDS011;23314;51.114;6.900;2022-08-20T09:58:06;13.70;;;11.70;;
37451;SDS011;23314;51.114;6.900;2022-08-20T10:00:42;17.83;;;12.85;;
37451;SDS011;23314;51.114;6.900;2022-08-20T10:03:07;16.25;;;13.07;;
37451;SDS011;23314;51.114;6.900;2022-08-20T10:05:32;18.60;;;13.88;;
37451;SDS011;23314;51.114;6.900;2022-08-20T10:07:58;20.10;;;14.10;;
37451;SDS011;23314;51.114;6.900;2022-08-20T10:10:23;21.08;;;14.38;;
37451;SDS011;23314;51.114;6.900;2022-08-20T10:12:49;18.98;;;15.02;;
37451;SDS011;23314;51.114;6.900;2022-08-20T10:15:14;21.67;;;12.10;;
37451;SDS011;23314;51.114;6.900;2022-08-20T10:17:40;16.70;;;12.45;;
37451;SDS011;23314;51.114;6.900;2022-08-20T10:20:07;19.52;;;12.95;;
37451;SDS011;23314;51.114;6.900;2022-08-20T10:22:35;16.92;;;12.60;;
37451;SDS011;23314;51.114;6.900;2022-08-20T10:25:00;19.00;;;12.50;;
37451;SDS011;23314;51.114;6.900;2022-08-20T10:27:26;20.83;;;13.98;;
37451;SDS011;23314;51.114;6.900;2022-08-20T10:29:51;20.48;;;14.07;;
37451;SDS011;23314;51.114;6.900;2022-08-20T10:32:16;20.65;;;14.48;;
37451;SDS011;23314;51.114;6.900;2022-08-20T10:34:42;18.73;;;14.90;;
37451;SDS011;23314;51.114;6.900;2022-08-20T10:37:13;20.67;;;14.05;;
37451;SDS011;23314;51.114;6.900;2022-08-20T10:39:40;18.95;;;14.43;;
37451;SDS011;23314;51.114;6.900;2022-08-20T10:42:05;16.23;;;12.82;;
37451;SDS011;23314;51.114;6.900;2022-08-20T10:44:31;16.48;;;14.63;;
37451;SDS011;23314;51.114;6.900;2022-08-20T10:46:56;16.50;;;13.52;;
37451;SDS011;23314;51.114;6.900;2022-08-20T10:49:21;20.13;;;14.68;;
37451;SDS011;23314;51.114;6.900;2022-08-20T10:51:47;20.17;;;14.15;;
37451;SDS011;23314;51.114;6.900;2022-08-20T10:54:12;20.52;;;13.82;;
37451;SDS011;23314;51.114;6.900;2022-08-20T10:56:37;17.33;;;13.57;;
37451;SDS011;23314;51.114;6.900;2022-08-20T10:59:03;18.80;;;14.35;;
37451;SDS011;23314;51.114;6.900;2022-08-20T11:01:28;19.17;;;13.10;;
37451;SDS011;23314;51.114;6.900;2022-08-20T11:03:53;19.98;;;13.38;;
37451;SDS011;23314;51.114;6.900;2022-08-20T11:06:19;17.65;;;14.23;;
37451;SDS011;23314;51.114;6.900;2022-08-20T11:08:44;21.13;;;14.05;;
37451;SDS011;23314;51.114;6.900;2022-08-20T11:11:09;20.15;;;13.93;;
37451;SDS011;23314;51.114;6.900;2022-08-20T11:13:35;20.50;;;14.45;;
37451;SDS011;23314;51.114;6.900;2022-08-20T11:16:00;19.25;;;13.93;;
37451;SDS011;23314;51.114;6.900;2022-08-20T11:18:27;18.73;;;14.40;;
37451;SDS011;23314;51.114;6.900;2022-08-20T11:20:52;16.77;;;13.38;;
37451;SDS011;23314;51.114;6.900;2022-08-20T11:23:17;20.63;;;12.55;;
37451;SDS011;23314;51.114;6.900;2022-08-20T11:25:43;18.50;;;13.55;;
37451;SDS011;23314;51.114;6.900;2022-08-20T11:28:08;19.48;;;12.93;;
37451;SDS011;23314;51.114;6.900;2022-08-20T11:30:34;16.17;;;11.30;;
37451;SDS011;23314;51.114;6.900;2022-08-20T11:33:01;18.35;;;11.77;;
37451;SDS011;23314;51.114;6.900;2022-08-20T11:35:27;18.60;;;13.25;;
37451;SDS011;23314;51.114;6.900;2022-08-20T11:37:55;20.17;;;14.57;;
37451;SDS011;23314;51.114;6.900;2022-08-20T11:40:21;20.25;;;12.90;;
37451;SDS011;23314;51.114;6.900;2022-08-20T11:42:47;22.65;;;14.48;;
37451;SDS011;23314;51.114;6.900;2022-08-20T11:45:13;22.63;;;15.18;;
37451;SDS011;23314;51.114;6.900;2022-08-20T11:47:39;20.80;;;14.98;;
37451;SDS011;23314;51.114;6.900;2022-08-20T11:50:06;18.45;;;13.63;;
37451;SDS011;23314;51.114;6.900;2022-08-20T11:52:34;20.33;;;14.38;;
37451;SDS011;23314;51.114;6.900;2022-08-20T11:55:00;17.92;;;13.20;;
37451;SDS011;23314;51.114;6.900;2022-08-20T11:57:26;17.45;;;13.25;;
37451;SDS011;23314;51.114;6.900;2022-08-20T11:59:54;17.80;;;14.25;;
37451;SDS011;23314;51.114;6.900;2022-08-20T12:02:21;16.27;;;12.63;;
37451;SDS011;23314;51.114;6.900;2022-08-20T12:04:47;17.80;;;14.77;;
37451;SDS011;23314;51.114;6.900;2022-08-20T12:07:14;18.15;;;12.27;;
37451;SDS011;23314;51.114;6.900;2022-08-20T12:09:44;18.25;;;13.95;;
37451;SDS011;23314;51.114;6.900;2022-08-20T12:12:10;17.92;;;12.05;;
37451;SDS011;23314;51.114;6.900;2022-08-20T12:14:36;12.90;;;11.45;;
37451;SDS011;23314;51.114;6.900;2022-08-20T12:17:12;16.65;;;11.57;;
37451;SDS011;23314;51.114;6.900;2022-08-20T12:19:43;19.25;;;14.40;;
37451;SDS011;23314;51.114;6.900;2022-08-20T12:22:09;15.13;;;11.57;;
37451;SDS011;23314;51.114;6.900;2022-08-20T12:24:35;13.13;;;10.38;;
37451;SDS011;23314;51.114;6.900;2022-08-20T12:27:07;15.90;;;10.70;;
37451;SDS011;23314;51.114;6.900;2022-08-20T12:29:40;13.82;;;9.57;;
37451;SDS011;23314;51.114;6.900;2022-08-20T12:32:07;18.55;;;10.45;;
37451;SDS011;23314;51.114;6.900;2022-08-20T12:34:33;13.40;;;10.13;;
37451;SDS011;23314;51.114;6.900;2022-08-20T12:37:03;10.50;;;9.43;;
37451;SDS011;23314;51.114;6.900;2022-08-20T12:39:38;11.93;;;9.70;;
37451;SDS011;23314;51.114;6.900;2022-08-20T12:42:04;11.45;;;9.13;;
37451;SDS011;23314;51.114;6.900;2022-08-20T12:44:30;11.00;;;8.20;;
37451;SDS011;23314;51.114;6.900;2022-08-20T12:47:06;9.68;;;7.72;;
37451;SDS011;23314;51.114;6.900;2022-08-20T12:49:32;10.32;;;9.02;;
37451;SDS011;23314;51.114;6.900;2022-08-20T12:51:58;9.55;;;8.23;;
37451;SDS011;23314;51.114;6.900;2022-08-20T12:54:24;12.35;;;9.25;;
37451;SDS011;23314;51.114;6.900;2022-08-20T12:56:49;10.82;;;9.73;;
37451;SDS011;23314;51.114;6.900;2022-08-20T12:59:16;9.98;;;8.45;;
37451;SDS011;23314;51.114;6.900;2022-08-20T13:01:41;11.95;;;9.00;;
37451;SDS011;23314;51.114;6.900;2022-08-20T13:04:07;10.98;;;7.43;;
37451;SDS011;23314;51.114;6.900;2022-08-20T13:06:32;9.98;;;8.02;;
37451;SDS011;23314;51.114;6.900;2022-08-20T13:08:57;10.02;;;7.35;;
37451;SDS011;23314;51.114;6.900;2022-08-20T13:11:23;9.45;;;6.85;;
37451;SDS011;23314;51.114;6.900;2022-08-20T13:13:48;9.02;;;7.50;;
37451;SDS011;23314;51.114;6.900;2022-08-20T13:16:13;10.93;;;7.97;;
37451;SDS011;23314;51.114;6.900;2022-08-20T13:18:39;11.07;;;7.18;;
37451;SDS011;23314;51.114;6.900;2022-08-20T13:21:05;8.00;;;6.68;;
37451;SDS011;23314;51.114;6.900;2022-08-20T13:23:30;11.23;;;7.30;;
37451;SDS011;23314;51.114;6.900;2022-08-20T13:25:55;11.18;;;6.97;;
37451;SDS011;23314;51.114;6.900;2022-08-20T13:28:21;11.57;;;8.48;;
37451;SDS011;23314;51.114;6.900;2022-08-20T13:30:46;10.73;;;6.90;;
37451;SDS011;23314;51.114;6.900;2022-08-20T13:33:11;10.88;;;6.93;;
37451;SDS011;23314;51.114;6.900;2022-08-20T13:35:36;9.27;;;7.20;;
37451;SDS011;23314;51.114;6.900;2022-08-20T13:38:02;13.50;;;6.65;;
37451;SDS011;23314;51.114;6.900;2022-08-20T13:40:27;10.20;;;5.82;;
37451;SDS011;23314;51.114;6.900;2022-08-20T13:42:53;9.25;;;5.60;;
37451;SDS011;23314;51.114;6.900;2022-08-20T13:45:18;11.75;;;5.95;;
37451;SDS011;23314;51.114;6.900;2022-08-20T13:47:44;8.45;;;5.25;;
37451;SDS011;23314;51.114;6.900;2022-08-20T13:50:14;10.10;;;6.20;;
37451;SDS011;23314;51.114;6.900;2022-08-20T13:52:41;11.73;;;6.03;;
37451;SDS011;23314;51.114;6.900;2022-08-20T13:55:08;12.45;;;5.30;;
37451;SDS011;23314;51.114;6.900;2022-08-20T13:57:35;9.25;;;5.22;;
37451;SDS011;23314;51.114;6.900;2022-08-20T14:00:00;14.85;;;5.30;;
37451;SDS011;23314;51.114;6.900;2022-08-20T14:02:27;10.45;;;4.53;;
37451;SDS011;23314;51.114;6.900;2022-08-20T14:04:52;10.63;;;5.15;;
37451;SDS011;23314;51.114;6.900;2022-08-20T14:07:20;9.55;;;5.80;;
37451;SDS011;23314;51.114;6.900;2022-08-20T14:09:50;9.00;;;4.45;;
37451;SDS011;23314;51.114;6.900;2022-08-20T14:12:18;10.52;;;4.88;;
37451;SDS011;23314;51.114;6.900;2022-08-20T14:14:43;8.20;;;5.13;;
37451;SDS011;23314;51.114;6.900;2022-08-20T14:17:16;12.02;;;4.65;;
37451;SDS011;23314;51.114;6.900;2022-08-20T14:19:44;8.50;;;3.58;;
37451;SDS011;23314;51.114;6.900;2022-08-20T14:22:11;11.30;;;4.20;;
37451;SDS011;23314;51.114;6.900;2022-08-20T14:24:36;7.82;;;3.83;;
37451;SDS011;23314;51.114;6.900;2022-08-20T14:27:03;8.07;;;3.80;;
37451;SDS011;23314;51.114;6.900;2022-08-20T14:29:33;10.77;;;4.43;;
37451;SDS011;23314;51.114;6.900;2022-08-20T14:31:59;6.50;;;3.95;;
37451;SDS011;23314;51.114;6.900;2022-08-20T14:34:25;7.97;;;4.05;;
37451;SDS011;23314;51.114;6.900;2022-08-20T14:36:50;8.38;;;3.53;;